Airfield :
LOGIN :

Register | Disclaimer

   EN    FR    IT 

 










Legend :    VFR   Marginal VFR   IFR   Intensive IFR   Very Intensive IFR
Visi :
Ceiling :
>= 8 km
>= 3000ft
5 to 8 km
1000 to 3000 ft
1500m to 5 km
500 to 1000 ft
800 to 1500m
200 to 500 ft
< 800m
< 200 ft
Symbols :   Thunderstorms  Fog  Heavy snow  Heavy precipitations  Wind > 20 kt
SIGMETs :     Misc.  Thunderstorms  Icing  Turbulence  Mountain Waves  Volcanic Ashes






- Airport Elevation : 66 ft
- IATA code : EJH


OEWJ - Wejh

CURRENT METAR :
  • 200900Z 29010KT 9999 FEW030 22/10 Q1022 NOSIG

EXPIRED METARs :
  • 200800Z 33005KT 9999 FEW030 20/09 Q1022 NOSIG
  • 200700Z 02005KT 9999 FEW030 19/09 Q1022 NOSIG

TAF TAF OEWJ
Valid from the 20 at 00:00 until the 21 at 06:00 UTC


192300Z 2000/2106 03008KT 8000 SCT040 SCT100
BECMG 2007/2009 30005G15KT
BECMG 2015/2017 36010KT



MET'MAP, your aeronautical weather chart ! - Copyright ORBIFLY December 2007 - Disclaimer

ORBIFLY MET'MAP TEAM :

Programming & Development : Alexandra Zaïnal
Concept & original design : Baudouin d'Aumeries
Assistance for programming : Marc-Olivier Méhu
Technical & hardware support : Manuel Goepfert

Contact : metmap@orbifly.com




SOURCES & CREDITS :

   NOAA